Time;durP1;ratioP1;P1;durP2;ratioP2;P2;SDS_P1;SDS_P2;PMS_P1;PMS_P2;Temp;Humidity;BMP_temperature;BMP_pressure;BME280_temperature;BME280_humidity;BME280_pressure;Samples;Min_cycle;Max_cycle;Signal;HPM_P1;HPM_P2
2022/07/27 00:00:43;;;;;;;5.13;1.60;;;13.90;99.90;;;;;;4990323;28;20125;-66
2022/07/27 00:03:09;;;;;;;3.60;1.60;;;13.90;99.90;;;;;;4990549;28;20065;-66
2022/07/27 00:05:35;;;;;;;4.53;1.60;;;13.80;99.90;;;;;;4975960;28;20062;-69
2022/07/27 00:08:01;;;;;;;6.28;1.70;;;13.90;99.90;;;;;;4995614;28;20062;-71
2022/07/27 00:10:27;;;;;;;4.20;1.35;;;13.90;99.90;;;;;;5003652;28;20122;-66
2022/07/27 00:12:53;;;;;;;4.50;1.15;;;13.80;99.90;;;;;;4991453;28;20404;-67
2022/07/27 00:15:19;;;;;;;4.47;1.60;;;13.80;99.90;;;;;;4967498;28;20413;-66
2022/07/27 00:17:45;;;;;;;6.07;1.48;;;13.80;99.90;;;;;;4965512;28;20065;-66
2022/07/27 00:20:11;;;;;;;4.28;1.50;;;13.80;99.90;;;;;;5002787;28;20050;-66
2022/07/27 00:22:37;;;;;;;5.30;1.50;;;13.80;99.90;;;;;;4982773;28;20104;-66
2022/07/27 00:25:03;;;;;;;4.30;1.40;;;13.80;99.90;;;;;;4967800;28;20172;-67
2022/07/27 00:27:29;;;;;;;5.43;1.40;;;13.80;99.90;;;;;;4966008;28;20038;-69
2022/07/27 00:29:55;;;;;;;6.70;1.63;;;13.70;99.90;;;;;;4981317;28;20042;-66
2022/07/27 00:32:21;;;;;;;6.97;1.52;;;13.80;99.90;;;;;;4980813;28;20057;-69
2022/07/27 00:34:47;;;;;;;5.32;1.60;;;13.80;99.90;;;;;;4982292;28;20055;-70
2022/07/27 00:37:14;;;;;;;7.65;1.58;;;13.80;99.90;;;;;;4990615;28;20432;-69
2022/07/27 00:39:40;;;;;;;5.78;1.52;;;13.80;99.90;;;;;;4990378;28;20061;-66
2022/07/27 00:42:06;;;;;;;5.13;1.50;;;13.90;99.90;;;;;;5000636;28;20043;-68
2022/07/27 00:44:33;;;;;;;4.22;1.50;;;13.90;99.90;;;;;;4990274;28;20059;-66
2022/07/27 00:46:58;;;;;;;3.53;1.50;;;13.90;99.90;;;;;;4986988;28;20420;-66
2022/07/27 00:49:28;;;;;;;5.85;1.60;;;14.00;99.90;;;;;;4989535;28;20051;-67
2022/07/27 00:51:54;;;;;;;3.00;1.60;;;14.00;99.90;;;;;;4989408;28;20496;-66
2022/07/27 00:54:21;;;;;;;6.13;1.52;;;14.10;99.90;;;;;;4972073;28;20046;-69
2022/07/27 00:56:48;;;;;;;6.30;1.80;;;14.10;99.90;;;;;;4988013;28;20121;-68
2022/07/27 00:59:14;;;;;;;7.13;1.65;;;14.10;99.90;;;;;;4971397;28;20050;-70
2022/07/27 01:01:40;;;;;;;4.63;1.40;;;14.20;99.90;;;;;;4989627;28;20042;-67
2022/07/27 01:04:07;;;;;;;6.72;1.55;;;14.20;99.90;;;;;;4990580;28;20096;-67
2022/07/27 01:06:34;;;;;;;4.07;1.50;;;14.20;99.90;;;;;;4983950;28;20061;-67
2022/07/27 01:11:47;;;;;;;7.07;1.70;;;14.20;99.90;;;;;;4999534;28;20050;-67
2022/07/27 01:14:15;;;;;;;4.43;1.60;;;14.20;99.90;;;;;;4992394;28;20104;-66
2022/07/27 01:16:42;;;;;;;4.32;1.70;;;14.20;99.90;;;;;;4973224;28;20475;-66
2022/07/27 01:19:12;;;;;;;5.70;1.52;;;14.30;99.90;;;;;;4994107;28;20047;-66
2022/07/27 01:21:38;;;;;;;3.67;1.35;;;14.20;99.90;;;;;;4993046;28;20096;-68
2022/07/27 01:24:05;;;;;;;5.38;1.50;;;14.30;99.90;;;;;;4975805;28;20049;-67
2022/07/27 01:26:33;;;;;;;5.80;1.33;;;14.20;99.90;;;;;;4990946;28;20085;-71
2022/07/27 01:29:00;;;;;;;4.45;1.50;;;14.20;99.90;;;;;;5008089;28;20555;-66
2022/07/27 01:31:27;;;;;;;6.03;1.45;;;14.20;99.90;;;;;;4992221;28;20042;-67
2022/07/27 01:33:53;;;;;;;4.75;1.30;;;14.10;99.90;;;;;;4994264;28;20526;-66
2022/07/27 01:36:19;;;;;;;9.02;2.25;;;14.10;99.90;;;;;;4981375;28;20085;-66
2022/07/27 01:38:45;;;;;;;6.18;1.77;;;14.00;99.90;;;;;;4977259;28;20066;-66
2022/07/27 01:41:12;;;;;;;8.55;1.67;;;14.00;99.90;;;;;;4991827;28;20068;-67
2022/07/27 01:43:38;;;;;;;5.35;1.70;;;13.90;99.90;;;;;;4993778;28;20394;-66
2022/07/27 01:46:04;;;;;;;3.42;1.33;;;13.80;99.90;;;;;;4990618;28;20113;-67
2022/07/27 01:48:30;;;;;;;8.23;1.50;;;13.80;99.90;;;;;;4989026;28;20061;-69
2022/07/27 01:50:57;;;;;;;5.72;1.58;;;13.70;99.90;;;;;;4993607;28;20108;-66
2022/07/27 01:53:23;;;;;;;3.97;1.50;;;13.70;99.90;;;;;;4993061;28;20046;-66
2022/07/27 01:55:50;;;;;;;5.35;1.50;;;13.70;99.90;;;;;;4988151;28;20054;-70
2022/07/27 01:58:17;;;;;;;6.28;1.55;;;13.70;99.90;;;;;;4975921;28;20082;-66
2022/07/27 02:00:43;;;;;;;5.40;1.50;;;13.70;99.90;;;;;;4972225;28;20112;-66
2022/07/27 02:03:11;;;;;;;4.00;1.33;;;14.10;99.90;;;;;;4996081;28;20074;-66
2022/07/27 02:05:38;;;;;;;3.75;1.13;;;13.70;99.90;;;;;;4992927;28;20054;-66
2022/07/27 02:08:05;;;;;;;5.47;1.48;;;13.70;99.90;;;;;;4973362;28;20082;-65
2022/07/27 02:10:32;;;;;;;5.70;1.60;;;13.60;99.90;;;;;;4973431;28;20412;-66
2022/07/27 02:12:58;;;;;;;7.70;1.42;;;13.50;99.90;;;;;;4976667;28;20492;-66
2022/07/27 02:15:27;;;;;;;7.30;1.52;;;13.50;99.90;;;;;;4992065;28;20065;-66
2022/07/27 02:17:54;;;;;;;4.10;1.35;;;13.40;99.90;;;;;;4992223;28;20050;-65
2022/07/27 02:20:23;;;;;;;3.20;1.30;;;13.30;99.90;;;;;;4992519;28;20084;-66
2022/07/27 02:22:50;;;;;;;5.30;1.40;;;13.30;99.90;;;;;;4992164;28;20058;-66
2022/07/27 02:25:18;;;;;;;3.13;1.45;;;13.20;99.90;;;;;;4975554;28;20280;-67
2022/07/27 02:27:45;;;;;;;6.60;1.40;;;13.20;99.90;;;;;;4989122;28;20078;-67
2022/07/27 02:30:12;;;;;;;6.40;1.40;;;13.10;99.90;;;;;;4992041;28;20113;-65
2022/07/27 02:32:41;;;;;;;5.47;1.65;;;13.10;99.90;;;;;;4992422;28;20404;-67
2022/07/27 02:35:07;;;;;;;5.80;1.40;;;13.00;99.90;;;;;;4975577;28;20053;-67
2022/07/27 02:37:33;;;;;;;3.15;1.30;;;12.90;99.90;;;;;;4990747;28;20101;-67
2022/07/27 02:40:00;;;;;;;5.25;1.80;;;12.90;99.90;;;;;;4991704;28;20053;-68
2022/07/27 02:42:26;;;;;;;7.22;1.45;;;12.80;99.90;;;;;;4988828;28;20505;-70
2022/07/27 02:44:52;;;;;;;6.13;1.70;;;12.70;99.90;;;;;;4993585;28;20112;-68
2022/07/27 02:47:18;;;;;;;3.88;1.38;;;12.60;99.90;;;;;;4992672;28;20505;-66
2022/07/27 02:49:44;;;;;;;5.18;1.60;;;12.50;99.90;;;;;;4976392;28;20117;-67
2022/07/27 02:52:10;;;;;;;4.50;1.42;;;12.40;99.90;;;;;;4975433;28;20093;-66
2022/07/27 02:54:36;;;;;;;4.50;2.00;;;12.40;99.90;;;;;;4973813;28;20057;-67
2022/07/27 02:57:03;;;;;;;7.03;1.58;;;12.40;99.90;;;;;;4976454;28;20042;-68
2022/07/27 02:59:29;;;;;;;4.03;1.70;;;12.50;99.90;;;;;;4992107;28;20686;-66
2022/07/27 03:01:55;;;;;;;4.50;1.70;;;12.50;99.90;;;;;;4992114;28;20126;-66
2022/07/27 03:04:21;;;;;;;8.05;1.88;;;12.50;99.90;;;;;;4991419;28;20054;-66
2022/07/27 03:06:47;;;;;;;6.45;1.83;;;12.50;99.90;;;;;;4989065;28;20061;-66
2022/07/27 03:09:13;;;;;;;4.90;1.80;;;12.50;99.90;;;;;;4989250;28;20042;-69
2022/07/27 03:11:39;;;;;;;4.65;1.67;;;12.50;99.90;;;;;;4992575;28;20629;-67
2022/07/27 03:14:05;;;;;;;3.95;1.80;;;12.50;99.90;;;;;;4992060;28;20073;-67
2022/07/27 03:16:31;;;;;;;5.80;1.90;;;12.50;99.90;;;;;;4991873;28;20039;-66
2022/07/27 03:18:57;;;;;;;5.32;1.95;;;12.40;99.90;;;;;;4975574;28;20049;-68
2022/07/27 03:21:24;;;;;;;6.07;1.98;;;12.40;99.90;;;;;;4975409;28;20050;-67
2022/07/27 03:23:50;;;;;;;10.40;1.83;;;12.30;99.90;;;;;;4991236;28;20050;-66
2022/07/27 03:26:17;;;;;;;4.97;1.67;;;12.30;99.90;;;;;;4990890;28;20050;-66
2022/07/27 03:28:42;;;;;;;6.35;1.90;;;12.20;99.90;;;;;;4991674;28;20517;-66
2022/07/27 03:31:08;;;;;;;3.47;1.60;;;12.20;99.90;;;;;;4975023;28;20042;-67
2022/07/27 03:33:35;;;;;;;7.60;1.90;;;12.20;99.90;;;;;;4990746;28;20042;-65
2022/07/27 03:36:01;;;;;;;6.03;1.90;;;12.20;99.90;;;;;;4974442;28;20085;-65
2022/07/27 03:38:28;;;;;;;5.30;1.70;;;12.20;99.90;;;;;;4991172;28;20066;-66
2022/07/27 03:40:54;;;;;;;4.32;1.88;;;12.10;99.90;;;;;;4990980;28;20616;-66
2022/07/27 03:43:20;;;;;;;7.15;1.80;;;12.10;99.90;;;;;;4975468;28;20092;-66
2022/07/27 03:45:46;;;;;;;5.50;2.25;;;12.00;99.90;;;;;;4991286;28;20049;-66
2022/07/27 03:48:12;;;;;;;4.15;1.73;;;12.00;99.90;;;;;;4991774;28;20050;-67
2022/07/27 03:50:38;;;;;;;4.82;1.70;;;12.00;99.90;;;;;;4975141;28;20050;-66
2022/07/27 03:53:04;;;;;;;4.10;1.88;;;12.00;99.90;;;;;;4989868;28;20054;-66
2022/07/27 03:55:30;;;;;;;3.75;1.80;;;11.90;99.90;;;;;;4991175;28;20100;-66
2022/07/27 03:57:56;;;;;;;6.32;2.10;;;11.80;99.90;;;;;;4991464;28;20100;-66
2022/07/27 04:00:22;;;;;;;6.10;2.40;;;11.80;99.90;;;;;;4991278;28;20432;-66
2022/07/27 04:02:49;;;;;;;5.78;2.22;;;11.80;99.90;;;;;;4975435;28;20057;-67
2022/07/27 04:05:14;;;;;;;4.38;1.70;;;11.80;99.90;;;;;;4975116;28;20109;-66
2022/07/27 04:07:40;;;;;;;6.40;2.20;;;11.80;99.90;;;;;;4988691;28;20050;-67
2022/07/27 04:10:07;;;;;;;3.92;2.00;;;11.80;99.90;;;;;;4991415;28;20065;-66
2022/07/27 04:12:37;;;;;;;5.50;2.03;;;11.80;99.90;;;;;;4975120;28;20468;-66
2022/07/27 04:15:05;;;;;;;6.03;2.22;;;11.80;99.90;;;;;;4990993;28;20120;-66
2022/07/27 04:17:31;;;;;;;7.20;2.13;;;11.80;99.90;;;;;;4991401;28;20057;-66
2022/07/27 04:19:57;;;;;;;6.95;2.20;;;11.80;99.90;;;;;;4990995;28;20054;-67
2022/07/27 04:22:23;;;;;;;6.40;2.25;;;11.90;99.90;;;;;;4995172;28;20113;-67
2022/07/27 04:24:49;;;;;;;6.97;2.60;;;11.90;99.90;;;;;;4990888;28;20058;-66
2022/07/27 04:27:15;;;;;;;7.13;2.33;;;12.00;99.90;;;;;;4990999;28;20510;-66
2022/07/27 04:29:41;;;;;;;7.88;2.33;;;12.10;99.90;;;;;;4975381;28;20364;-66
2022/07/27 04:32:06;;;;;;;3.92;2.08;;;12.10;99.90;;;;;;4974799;28;20405;-66
2022/07/27 04:34:32;;;;;;;6.55;2.20;;;12.10;99.90;;;;;;4990562;28;20424;-67
2022/07/27 04:36:58;;;;;;;5.60;2.50;;;12.20;99.90;;;;;;4997085;28;20042;-66
2022/07/27 04:39:25;;;;;;;6.78;2.25;;;12.20;99.90;;;;;;4974694;28;20058;-66
2022/07/27 04:41:51;;;;;;;6.63;2.50;;;12.30;99.90;;;;;;4990659;28;20149;-66
2022/07/27 04:44:17;;;;;;;4.82;2.10;;;12.30;99.90;;;;;;4990797;28;20121;-65
2022/07/27 04:46:43;;;;;;;4.97;2.42;;;12.30;99.90;;;;;;4978103;28;20193;-66
2022/07/27 04:49:09;;;;;;;7.05;2.40;;;12.40;99.90;;;;;;4991206;28;20148;-66
2022/07/27 04:51:35;;;;;;;5.13;2.40;;;12.40;99.90;;;;;;4996666;28;20050;-67
2022/07/27 04:54:01;;;;;;;4.78;2.50;;;12.40;99.90;;;;;;4990774;28;20058;-65
2022/07/27 04:56:27;;;;;;;5.63;2.65;;;12.50;99.90;;;;;;4990164;28;20050;-65
2022/07/27 04:58:54;;;;;;;7.07;2.30;;;12.60;99.90;;;;;;4990459;28;20062;-66
2022/07/27 05:01:22;;;;;;;5.80;2.42;;;12.70;99.90;;;;;;4974669;28;20125;-66
2022/07/27 05:03:47;;;;;;;6.65;2.65;;;12.80;99.90;;;;;;4973529;28;20046;-66
2022/07/27 05:06:13;;;;;;;7.10;2.50;;;12.90;99.90;;;;;;4973447;28;20054;-69
2022/07/27 05:08:39;;;;;;;8.50;2.85;;;13.10;99.90;;;;;;4990943;28;20129;-67
2022/07/27 05:11:05;;;;;;;7.30;2.70;;;13.20;99.90;;;;;;4990583;28;20048;-67
2022/07/27 05:13:31;;;;;;;5.97;2.35;;;13.30;99.90;;;;;;4990774;28;20565;-68
2022/07/27 05:15:57;;;;;;;8.07;2.40;;;13.40;99.90;;;;;;4989928;28;20104;-66
2022/07/27 05:18:24;;;;;;;7.22;2.60;;;13.50;99.90;;;;;;4992637;28;20046;-67
2022/07/27 05:20:50;;;;;;;9.25;2.40;;;13.70;99.90;;;;;;4989891;28;20050;-67
2022/07/27 05:23:17;;;;;;;10.77;2.55;;;13.80;99.90;;;;;;4974258;28;20058;-66
2022/07/27 05:25:43;;;;;;;6.43;2.30;;;13.90;99.90;;;;;;4990000;28;20069;-66
2022/07/27 05:28:11;;;;;;;6.65;2.50;;;14.10;99.90;;;;;;4974470;28;20073;-68
2022/07/27 05:30:37;;;;;;;4.63;2.22;;;14.10;99.90;;;;;;4974504;28;20050;-69
2022/07/27 05:33:03;;;;;;;9.93;2.40;;;14.20;99.90;;;;;;4991166;28;20073;-67
2022/07/27 05:35:29;;;;;;;6.25;2.28;;;14.40;99.90;;;;;;4989192;28;20417;-66
2022/07/27 05:37:56;;;;;;;5.32;2.15;;;14.50;99.90;;;;;;4973809;28;20085;-67
2022/07/27 05:40:22;;;;;;;5.80;1.92;;;14.60;99.90;;;;;;4990216;28;20137;-68
2022/07/27 05:42:48;;;;;;;5.75;2.08;;;14.70;99.90;;;;;;4973838;28;20081;-66
2022/07/27 05:45:14;;;;;;;5.15;1.70;;;14.60;99.90;;;;;;4989725;28;20605;-68
2022/07/27 05:47:40;;;;;;;8.10;2.00;;;14.70;99.90;;;;;;4976910;28;20053;-66
2022/07/27 05:50:07;;;;;;;6.32;2.30;;;14.80;99.90;;;;;;4989444;28;20049;-68
2022/07/27 05:52:33;;;;;;;7.35;2.30;;;14.80;99.90;;;;;;4990374;28;20047;-66
2022/07/27 05:54:59;;;;;;;5.78;2.17;;;14.80;99.90;;;;;;4992075;28;20425;-66
2022/07/27 05:57:26;;;;;;;4.13;2.00;;;14.80;99.90;;;;;;4977113;28;20057;-66
2022/07/27 05:59:53;;;;;;;8.07;1.85;;;14.90;99.90;;;;;;4993285;28;20086;-66
2022/07/27 06:02:20;;;;;;;11.75;2.42;;;15.00;99.90;;;;;;4976806;28;20046;-67
2022/07/27 06:04:47;;;;;;;6.13;2.00;;;15.10;99.90;;;;;;4991816;28;20500;-67
2022/07/27 06:09:57;;;;;;;4.47;1.90;;;15.20;99.90;;;;;;4993949;28;20534;-67
2022/07/27 06:12:23;;;;;;;8.80;2.00;;;15.20;99.90;;;;;;4993383;28;20061;-67
2022/07/27 06:14:49;;;;;;;5.07;2.05;;;15.30;99.90;;;;;;4993366;28;20050;-66
2022/07/27 06:17:16;;;;;;;10.38;2.20;;;15.40;99.90;;;;;;4980169;28;20052;-66
2022/07/27 06:19:42;;;;;;;9.77;2.25;;;15.40;99.90;;;;;;4992868;28;20053;-66
2022/07/27 06:22:08;;;;;;;9.15;2.45;;;15.60;99.90;;;;;;4993269;28;20417;-67
2022/07/27 06:24:34;;;;;;;4.93;2.10;;;15.60;99.90;;;;;;4993203;28;20869;-67
2022/07/27 06:27:00;;;;;;;8.10;2.30;;;15.60;99.90;;;;;;4977338;28;20054;-67
2022/07/27 06:29:27;;;;;;;7.60;2.00;;;15.70;99.90;;;;;;4993506;28;20082;-66
2022/07/27 06:31:53;;;;;;;4.43;2.10;;;15.90;99.90;;;;;;4993848;28;20385;-67
2022/07/27 06:34:19;;;;;;;6.57;1.95;;;16.00;99.90;;;;;;4992134;28;20056;-66
2022/07/27 06:36:45;;;;;;;6.55;1.60;;;15.90;99.90;;;;;;4993314;28;20129;-66
2022/07/27 06:39:11;;;;;;;7.18;1.75;;;15.90;99.90;;;;;;4976311;28;20068;-67
2022/07/27 06:41:37;;;;;;;5.93;1.70;;;16.10;99.90;;;;;;4992963;28;20046;-68
2022/07/27 06:44:04;;;;;;;7.07;1.98;;;16.30;99.90;;;;;;4993409;28;20113;-66
2022/07/27 06:46:29;;;;;;;5.57;1.80;;;16.40;99.90;;;;;;4991302;28;20401;-66
2022/07/27 06:48:55;;;;;;;4.22;1.95;;;16.50;99.90;;;;;;4991867;28;20086;-66
2022/07/27 06:51:24;;;;;;;7.20;2.10;;;16.70;99.90;;;;;;4976469;28;20053;-66
2022/07/27 06:53:53;;;;;;;7.13;2.08;;;16.40;99.90;;;;;;4993091;28;20068;-66
2022/07/27 06:56:20;;;;;;;8.27;1.92;;;16.60;99.90;;;;;;4992445;28;20050;-67
2022/07/27 06:58:46;;;;;;;7.20;2.05;;;16.60;99.90;;;;;;4976648;28;20082;-67
2022/07/27 07:01:13;;;;;;;4.20;1.60;;;16.80;99.90;;;;;;4992750;28;20521;-67
2022/07/27 07:03:39;;;;;;;5.93;1.52;;;16.90;99.90;;;;;;4975783;28;20082;-67
2022/07/27 07:06:05;;;;;;;4.60;1.95;;;17.10;99.90;;;;;;4975908;28;20085;-67
2022/07/27 07:08:31;;;;;;;6.85;2.35;;;17.10;99.90;;;;;;4993639;28;20484;-66
2022/07/27 07:10:57;;;;;;;5.80;2.03;;;17.20;99.90;;;;;;4992373;28;20404;-67
2022/07/27 07:13:22;;;;;;;5.13;2.03;;;17.10;99.90;;;;;;4992351;28;20042;-67
2022/07/27 07:15:48;;;;;;;4.22;1.70;;;17.20;99.90;;;;;;4974902;28;20064;-68
2022/07/27 07:18:14;;;;;;;5.90;1.58;;;17.30;99.90;;;;;;4991457;28;20385;-70
2022/07/27 07:20:41;;;;;;;6.93;1.60;;;17.40;99.90;;;;;;4991974;28;20052;-67
2022/07/27 07:23:07;;;;;;;7.80;1.50;;;17.40;99.90;;;;;;4992202;28;20129;-66
2022/07/27 07:25:33;;;;;;;7.47;1.75;;;17.60;99.90;;;;;;4991920;28;20345;-66
2022/07/27 07:28:00;;;;;;;4.40;1.25;;;17.80;99.90;;;;;;4992383;28;20507;-68
2022/07/27 07:30:26;;;;;;;6.18;1.52;;;17.80;99.90;;;;;;4990973;28;20050;-67
2022/07/27 07:32:53;;;;;;;2.83;1.30;;;18.00;99.90;;;;;;4992090;28;20077;-68
2022/07/27 07:35:19;;;;;;;4.85;1.60;;;18.00;99.90;;;;;;4978522;28;20097;-67
2022/07/27 07:37:45;;;;;;;4.95;1.70;;;18.20;99.90;;;;;;4990311;28;20516;-67
2022/07/27 07:40:11;;;;;;;8.23;1.35;;;18.50;99.90;;;;;;4975635;28;20054;-67
2022/07/27 07:43:10;;;;;;;7.38;1.40;;;18.50;99.90;;;;;;4992204;28;20050;-69
2022/07/27 07:45:36;;;;;;;7.00;1.42;;;18.50;99.90;;;;;;4949920;28;20066;-67
2022/07/27 07:48:05;;;;;;;7.10;1.40;;;18.30;99.90;;;;;;4973634;28;20523;-68
2022/07/27 07:50:31;;;;;;;6.15;1.40;;;18.10;99.90;;;;;;4990715;28;20961;-68
2022/07/27 07:52:57;;;;;;;4.68;1.30;;;18.00;99.90;;;;;;4991907;28;20077;-67
2022/07/27 07:55:26;;;;;;;7.68;1.60;;;18.20;99.90;;;;;;4975236;28;20046;-67
2022/07/27 07:57:52;;;;;;;8.23;1.65;;;18.20;99.90;;;;;;4991716;28;20057;-67
2022/07/27 08:00:19;;;;;;;4.70;1.20;;;18.70;99.90;;;;;;4974644;28;20071;-66
2022/07/27 08:02:56;;;;;;;4.25;1.33;;;19.20;99.90;;;;;;4991703;28;20054;-67
2022/07/27 08:05:22;;;;;;;4.45;1.25;;;19.40;99.90;;;;;;4986559;28;20050;-66
2022/07/27 08:07:49;;;;;;;5.75;1.25;;;19.30;99.90;;;;;;4989707;28;20089;-67
2022/07/27 08:10:16;;;;;;;5.95;1.40;;;19.30;99.90;;;;;;4990574;28;20077;-67
2022/07/27 08:12:45;;;;;;;3.15;1.23;;;19.10;99.90;;;;;;4989847;28;20054;-67
2022/07/27 08:15:12;;;;;;;5.70;1.50;;;18.70;99.90;;;;;;5000709;28;20042;-67
2022/07/27 08:17:38;;;;;;;3.55;1.45;;;18.40;99.90;;;;;;4998605;28;20054;-67
2022/07/27 08:20:05;;;;;;;7.28;1.75;;;17.80;99.90;;;;;;4991211;28;20137;-66
2022/07/27 08:22:32;;;;;;;6.13;1.70;;;17.40;99.90;;;;;;4990696;28;20473;-67
2022/07/27 08:24:58;;;;;;;9.32;1.90;;;17.10;99.90;;;;;;4990412;28;20045;-66
2022/07/27 08:27:24;;;;;;;3.60;1.73;;;16.90;99.90;;;;;;4973990;28;20061;-66
2022/07/27 08:29:50;;;;;;;8.50;1.55;;;16.70;99.90;;;;;;4973288;28;20054;-66
2022/07/27 08:32:16;;;;;;;7.60;1.65;;;16.60;99.90;;;;;;4986198;28;20647;-68
2022/07/27 08:34:42;;;;;;;6.70;1.27;;;16.80;99.90;;;;;;4971384;28;20060;-66
2022/07/27 08:37:08;;;;;;;6.88;1.60;;;16.90;99.90;;;;;;4989570;28;20493;-66
2022/07/27 08:39:34;;;;;;;8.38;1.80;;;17.00;99.90;;;;;;4998310;28;20062;-66
2022/07/27 08:42:03;;;;;;;4.78;1.50;;;17.10;99.90;;;;;;4989688;28;20038;-67
2022/07/27 08:44:30;;;;;;;5.35;1.80;;;17.20;99.90;;;;;;4974096;28;20050;-66
2022/07/27 08:46:59;;;;;;;10.00;1.70;;;17.30;99.90;;;;;;4975192;28;20046;-67
2022/07/27 08:49:28;;;;;;;8.25;1.25;;;17.50;99.90;;;;;;4988198;28;20058;-66
2022/07/27 08:51:54;;;;;;;4.88;1.80;;;17.60;99.90;;;;;;4990942;28;20579;-67
2022/07/27 08:54:20;;;;;;;8.85;1.60;;;17.90;99.90;;;;;;4989849;28;20050;-67
2022/07/27 08:56:47;;;;;;;5.82;1.30;;;18.10;99.90;;;;;;4989021;28;20046;-66
2022/07/27 08:59:13;;;;;;;4.22;1.33;;;18.40;99.90;;;;;;4989807;28;20117;-71
2022/07/27 09:01:39;;;;;;;4.68;1.10;;;18.90;99.90;;;;;;4990844;28;20101;-69
2022/07/27 09:04:09;;;;;;;4.85;0.90;;;19.30;99.90;;;;;;4990583;28;20493;-71
2022/07/27 09:06:48;;;;;;;3.05;1.00;;;19.50;99.90;;;;;;4990671;28;20057;-70
2022/07/27 09:09:19;;;;;;;3.13;0.95;;;19.40;99.90;;;;;;4990087;28;20086;-72
2022/07/27 09:12:09;;;;;;;4.28;1.17;;;19.40;99.90;;;;;;4989540;28;20086;-69
2022/07/27 09:14:38;;;;;;;4.20;1.35;;;19.50;99.90;;;;;;4973900;28;20065;-70
2022/07/27 09:17:24;;;;;;;3.08;1.05;;;19.90;99.90;;;;;;4974401;28;20096;-69
2022/07/27 09:19:59;;;;;;;4.97;1.15;;;20.20;99.90;;;;;;4990603;28;20129;-69
2022/07/27 09:22:39;;;;;;;7.53;1.13;;;20.40;99.90;;;;;;4989218;28;20050;-68
2022/07/27 09:25:07;;;;;;;4.65;1.20;;;20.30;99.90;;;;;;4985606;28;20046;-70
2022/07/27 09:27:33;;;;;;;5.32;1.20;;;20.10;99.90;;;;;;4990377;28;20050;-68
2022/07/27 09:30:05;;;;;;;3.08;1.05;;;20.30;99.90;;;;;;4971079;28;20051;-69
2022/07/27 09:32:32;;;;;;;4.85;0.88;;;20.50;99.90;;;;;;4982690;28;20042;-71
2022/07/27 09:34:58;;;;;;;2.33;0.95;;;20.80;99.90;;;;;;4997774;28;20126;-69
2022/07/27 09:37:26;;;;;;;4.50;1.20;;;21.00;99.90;;;;;;4977443;28;20062;-68
2022/07/27 09:40:13;;;;;;;3.58;1.20;;;20.90;99.40;;;;;;4977105;28;20501;-68
2022/07/27 09:42:39;;;;;;;2.60;1.10;;;21.10;97.60;;;;;;4993655;28;20078;-71
2022/07/27 09:45:28;;;;;;;3.42;1.00;;;21.10;97.90;;;;;;4993545;28;20092;-69
2022/07/27 09:48:16;;;;;;;1.85;0.93;;;21.20;94.20;;;;;;4991276;28;20492;-68
2022/07/27 09:50:45;;;;;;;1.45;0.70;;;21.20;92.80;;;;;;5018609;28;20508;-69
2022/07/27 09:53:21;;;;;;;4.55;0.85;;;21.40;95.50;;;;;;4992211;28;20058;-69
2022/07/27 09:55:59;;;;;;;2.17;0.82;;;21.30;92.80;;;;;;4992037;28;20105;-68
2022/07/27 09:58:44;;;;;;;3.53;1.00;;;21.30;91.80;;;;;;4990115;28;20104;-69
2022/07/27 10:01:22;;;;;;;2.70;1.02;;;21.30;91.40;;;;;;4993827;28;20085;-70
2022/07/27 10:03:54;;;;;;;3.45;0.85;;;21.20;88.40;;;;;;4991461;28;20073;-68
2022/07/27 10:06:21;;;;;;;5.07;0.90;;;21.20;90.40;;;;;;4977528;28;20100;-69
2022/07/27 10:08:49;;;;;;;1.08;0.68;;;21.40;92.10;;;;;;4976208;28;20082;-69
2022/07/27 10:11:17;;;;;;;4.45;0.90;;;21.70;91.60;;;;;;4990921;28;20042;-69
2022/07/27 10:13:43;;;;;;;2.33;0.85;;;21.70;90.50;;;;;;4975979;28;20039;-68
2022/07/27 10:16:21;;;;;;;3.03;0.77;;;21.70;90.90;;;;;;4990447;28;20052;-69
2022/07/27 10:19:04;;;;;;;3.15;1.10;;;21.60;90.40;;;;;;4992436;28;20050;-69
2022/07/27 10:21:31;;;;;;;3.42;0.82;;;21.60;88.80;;;;;;4973848;28;20045;-68
2022/07/27 10:24:06;;;;;;;2.38;0.70;;;21.60;89.20;;;;;;4993170;28;20042;-68
2022/07/27 10:26:40;;;;;;;4.35;1.10;;;21.70;85.90;;;;;;4993376;28;20062;-70
2022/07/27 10:29:14;;;;;;;2.10;0.80;;;21.80;86.70;;;;;;4992680;28;20050;-68
2022/07/27 10:32:02;;;;;;;1.67;0.80;;;22.00;86.30;;;;;;4993010;28;20045;-68
2022/07/27 10:34:32;;;;;;;4.50;0.90;;;21.90;87.00;;;;;;4974017;28;20563;-68
2022/07/27 10:37:09;;;;;;;1.77;0.70;;;22.00;85.50;;;;;;4991414;28;20084;-68
2022/07/27 10:42:42;;;;;;;1.73;0.80;;;22.50;86.40;;;;;;4993252;28;20054;-68
2022/07/27 10:45:11;;;;;;;2.75;1.02;;;22.60;84.90;;;;;;4992491;28;20069;-69
2022/07/27 10:47:55;;;;;;;3.38;1.00;;;22.80;84.30;;;;;;4992755;28;20077;-68
2022/07/27 10:50:24;;;;;;;2.60;0.85;;;22.80;84.00;;;;;;4990810;28;20042;-69
2022/07/27 10:52:59;;;;;;;1.45;0.70;;;22.90;82.60;;;;;;4993021;28;20054;-68
2022/07/27 10:55:31;;;;;;;1.63;0.70;;;22.70;80.60;;;;;;4991966;28;20500;-68
2022/07/27 10:58:02;;;;;;;1.92;0.80;;;22.80;75.80;;;;;;4991160;28;20058;-68
2022/07/27 11:00:50;;;;;;;2.20;0.63;;;22.70;77.20;;;;;;4985998;28;20046;-68
2022/07/27 11:03:23;;;;;;;2.97;0.80;;;22.40;71.60;;;;;;4976663;28;20473;-69
2022/07/27 11:06:06;;;;;;;2.80;0.80;;;22.20;75.20;;;;;;4971863;28;20061;-67
2022/07/27 11:08:34;;;;;;;1.80;0.80;;;22.30;76.30;;;;;;4976892;28;20038;-68
2022/07/27 11:11:01;;;;;;;2.42;0.88;;;22.50;77.40;;;;;;4992256;28;20449;-68
2022/07/27 11:13:29;;;;;;;4.20;0.80;;;22.70;77.40;;;;;;4992171;28;20042;-68
2022/07/27 11:16:05;;;;;;;2.05;0.77;;;22.90;76.00;;;;;;4970549;28;20051;-68
2022/07/27 11:18:36;;;;;;;3.28;0.98;;;22.50;70.00;;;;;;4973799;28;20069;-69
2022/07/27 11:21:15;;;;;;;2.20;0.70;;;22.40;74.30;;;;;;4992634;28;20058;-69
2022/07/27 11:23:43;;;;;;;2.30;0.82;;;22.20;72.50;;;;;;4991482;28;20046;-71
2022/07/27 11:26:09;;;;;;;1.33;0.60;;;22.40;75.10;;;;;;4988517;28;20053;-69
2022/07/27 11:28:36;;;;;;;3.17;0.88;;;22.60;75.20;;;;;;4986801;28;20133;-70
2022/07/27 11:31:06;;;;;;;4.10;0.70;;;22.90;74.40;;;;;;4987947;28;20046;-68
2022/07/27 11:33:33;;;;;;;2.78;0.80;;;22.80;74.00;;;;;;4988729;28;20057;-71
2022/07/27 11:36:04;;;;;;;2.20;0.90;;;22.60;74.20;;;;;;4977066;28;20062;-69
2022/07/27 11:38:53;;;;;;;1.15;0.65;;;22.40;74.60;;;;;;4977165;28;20108;-69
2022/07/27 11:41:28;;;;;;;3.50;0.90;;;22.30;73.80;;;;;;4994777;28;20058;-70
2022/07/27 11:43:58;;;;;;;4.85;0.90;;;22.30;75.40;;;;;;4990374;28;20439;-69
2022/07/27 11:46:27;;;;;;;1.87;0.77;;;22.20;76.30;;;;;;4980050;28;20050;-71
2022/07/27 11:48:59;;;;;;;3.22;0.80;;;22.40;75.40;;;;;;4990423;28;20463;-68
2022/07/27 11:51:26;;;;;;;2.88;0.80;;;23.00;77.30;;;;;;4985805;28;20860;-71
2022/07/27 11:54:06;;;;;;;3.33;0.90;;;23.50;75.70;;;;;;4981407;28;20042;-68
2022/07/27 11:56:35;;;;;;;5.40;0.88;;;23.80;72.20;;;;;;4978121;28;20523;-69
2022/07/27 11:59:13;;;;;;;2.13;0.80;;;23.60;74.40;;;;;;4987919;28;20054;-69
2022/07/27 12:01:42;;;;;;;3.40;0.90;;;23.30;74.80;;;;;;4975879;28;20133;-70
2022/07/27 12:04:12;;;;;;;2.80;0.90;;;23.20;75.50;;;;;;4969445;28;20129;-70
2022/07/27 12:06:40;;;;;;;3.22;0.88;;;22.90;75.70;;;;;;4988147;28;20540;-70
2022/07/27 12:09:08;;;;;;;2.58;0.90;;;22.70;76.00;;;;;;5003947;28;20531;-70
2022/07/27 12:12:06;;;;;;;4.10;1.00;;;22.70;76.60;;;;;;4970926;28;20105;-70
2022/07/27 12:14:39;;;;;;;3.70;0.80;;;22.70;75.40;;;;;;4990922;28;20050;-70
2022/07/27 12:17:17;;;;;;;5.13;1.08;;;22.90;77.60;;;;;;4990889;28;20448;-70
2022/07/27 12:19:51;;;;;;;5.30;1.42;;;22.90;75.60;;;;;;5005724;28;20132;-71
2022/07/27 12:22:32;;;;;;;2.85;0.70;;;23.10;74.80;;;;;;4990600;28;20050;-70
2022/07/27 12:24:59;;;;;;;;;;;23.40;76.10;;;;;;4983899;28;20112;-71
2022/07/27 12:27:25;;;;;;;2.22;0.88;;;23.80;71.60;;;;;;5022527;28;19922;-71
2022/07/27 12:30:10;;;;;;;6.45;0.90;;;24.20;76.50;;;;;;5003068;28;20077;-69
2022/07/27 12:32:41;;;;;;;6.00;1.10;;;24.60;76.30;;;;;;4975292;28;20078;-70
2022/07/27 12:35:22;;;;;;;4.13;1.08;;;24.40;74.90;;;;;;4974757;28;20046;-69
2022/07/27 12:37:59;;;;;;;4.03;0.77;;;23.90;71.80;;;;;;4987712;28;20477;-70
2022/07/27 12:40:26;;;;;;;4.60;0.80;;;23.80;71.80;;;;;;4991049;28;20129;-69
2022/07/27 12:43:05;;;;;;;3.15;1.10;;;23.50;73.40;;;;;;4991275;28;20109;-70
2022/07/27 12:45:34;;;;;;;2.47;0.88;;;23.30;69.60;;;;;;4989789;28;20054;-69
2022/07/27 12:48:06;;;;;;;3.78;0.70;;;23.10;72.00;;;;;;4991073;28;20140;-69
2022/07/27 12:50:32;;;;;;;6.70;1.10;;;23.50;73.30;;;;;;5023454;28;20046;-70
2022/07/27 12:52:58;;;;;;;2.40;0.98;;;23.60;73.50;;;;;;5023269;28;20049;-69
2022/07/27 12:55:24;;;;;;;3.05;1.00;;;23.60;73.10;;;;;;4974357;28;20408;-69
2022/07/27 12:57:52;;;;;;;3.53;1.15;;;23.50;72.00;;;;;;4990916;28;20068;-69
2022/07/27 13:00:19;;;;;;;4.35;0.90;;;23.60;71.90;;;;;;4986207;28;20058;-69
2022/07/27 13:02:45;;;;;;;6.55;1.20;;;23.70;71.60;;;;;;4975225;28;20046;-69